createdAt,value
2023-02-03T00:01:56.776Z,6.60
2023-02-03T00:04:23.421Z,6.60
2023-02-03T00:06:51.025Z,6.60
2023-02-03T00:09:18.474Z,6.60
2023-02-03T00:11:45.774Z,6.50
2023-02-03T00:14:12.415Z,6.50
2023-02-03T00:16:39.144Z,6.50
2023-02-03T00:19:05.815Z,6.40
2023-02-03T00:21:33.400Z,6.40
2023-02-03T00:24:00.038Z,6.50
2023-02-03T00:26:28.608Z,6.50
2023-02-03T00:28:55.305Z,6.50
2023-02-03T00:31:24.420Z,6.50
2023-02-03T00:33:56.348Z,6.50
2023-02-03T00:36:23.747Z,6.50
2023-02-03T00:38:50.861Z,6.50
2023-02-03T00:41:18.764Z,6.60
2023-02-03T00:43:45.478Z,6.60
2023-02-03T00:46:12.255Z,6.60
2023-02-03T00:48:39.036Z,6.60
2023-02-03T00:51:06.306Z,6.60
2023-02-03T00:53:33.180Z,6.50
2023-02-03T00:55:59.844Z,6.60
2023-02-03T00:58:26.592Z,6.50
2023-02-03T01:00:56.843Z,6.60
2023-02-03T01:03:23.461Z,6.60
2023-02-03T01:05:50.334Z,6.60
2023-02-03T01:08:17.088Z,6.50
2023-02-03T01:10:43.747Z,6.60
2023-02-03T01:13:10.503Z,6.60
2023-02-03T01:15:37.174Z,6.60
2023-02-03T01:18:03.935Z,6.60
2023-02-03T01:20:30.596Z,6.60
2023-02-03T01:22:57.612Z,6.60
2023-02-03T01:25:24.485Z,6.60
2023-02-03T01:27:51.234Z,6.60
2023-02-03T01:30:18.210Z,6.60
2023-02-03T01:32:44.831Z,6.70
2023-02-03T01:35:11.447Z,6.70
2023-02-03T01:37:38.192Z,6.70
2023-02-03T01:40:05.354Z,6.70
2023-02-03T01:42:33.977Z,6.70
2023-02-03T01:45:00.710Z,6.70
2023-02-03T01:47:36.256Z,6.70
2023-02-03T01:50:13.586Z,6.70
2023-02-03T01:52:42.949Z,6.70
2023-02-03T01:55:13.892Z,6.70
2023-02-03T01:57:54.033Z,6.70
2023-02-03T02:00:20.958Z,6.70
2023-02-03T02:02:49.494Z,6.70
2023-02-03T02:05:28.799Z,6.70
2023-02-03T02:07:57.628Z,6.70
2023-02-03T02:10:25.171Z,6.70
2023-02-03T02:12:55.201Z,6.70
2023-02-03T02:15:27.948Z,6.60
2023-02-03T02:18:12.770Z,6.60
2023-02-03T02:21:14.501Z,6.60
2023-02-03T02:24:07.785Z,6.60
2023-02-03T02:26:44.045Z,6.60
2023-02-03T02:29:32.353Z,6.60
2023-02-03T02:32:01.969Z,6.60
2023-02-03T02:34:54.598Z,6.60
2023-02-03T02:37:50.258Z,6.50
2023-02-03T02:40:23.935Z,6.50
2023-02-03T02:43:02.635Z,6.40
2023-02-03T02:45:47.951Z,6.40
2023-02-03T02:48:40.954Z,6.40
2023-02-03T02:51:10.677Z,6.40
2023-02-03T02:53:42.947Z,6.30
2023-02-03T02:56:15.301Z,6.30
2023-02-03T02:58:47.218Z,6.30
2023-02-03T03:01:13.999Z,6.20
2023-02-03T03:03:42.928Z,6.20
2023-02-03T03:06:16.349Z,6.20
2023-02-03T03:08:55.452Z,6.20
2023-02-03T03:11:27.078Z,6.20
2023-02-03T03:13:55.836Z,6.20
2023-02-03T03:16:29.830Z,6.20
2023-02-03T03:18:59.102Z,6.20
2023-02-03T03:21:29.866Z,6.20
2023-02-03T03:24:01.607Z,6.20
2023-02-03T03:26:47.525Z,6.20
2023-02-03T03:29:31.252Z,6.10
2023-02-03T03:31:58.678Z,6.10
2023-02-03T03:34:25.479Z,6.10
2023-02-03T03:37:20.038Z,6.10
2023-02-03T03:39:58.871Z,6.00
2023-02-03T03:42:58.854Z,6.00
2023-02-03T03:45:33.678Z,6.00
2023-02-03T03:48:22.125Z,5.90
2023-02-03T03:50:57.189Z,5.90
2023-02-03T03:53:28.661Z,5.90
2023-02-03T03:55:58.789Z,5.90
2023-02-03T03:58:29.865Z,5.80
2023-02-03T04:01:02.665Z,5.80
2023-02-03T04:03:35.424Z,5.80
2023-02-03T04:06:02.254Z,5.70
2023-02-03T04:08:28.887Z,5.70
2023-02-03T04:10:55.548Z,5.70
2023-02-03T04:13:22.261Z,5.70
2023-02-03T04:15:48.986Z,5.60
2023-02-03T04:18:16.592Z,5.60
2023-02-03T04:20:43.773Z,5.60
2023-02-03T04:23:10.801Z,5.60
2023-02-03T04:25:37.496Z,5.60
2023-02-03T04:28:04.435Z,5.60
2023-02-03T04:30:31.404Z,5.60
2023-02-03T04:32:58.265Z,5.50
2023-02-03T04:35:24.920Z,5.50
2023-02-03T04:37:51.619Z,5.50
2023-02-03T04:40:18.562Z,5.50
2023-02-03T04:42:45.209Z,5.50
2023-02-03T04:45:12.804Z,5.50
2023-02-03T04:47:40.070Z,5.50
2023-02-03T04:50:07.544Z,5.50
2023-02-03T04:52:34.271Z,5.50
2023-02-03T04:55:00.954Z,5.50
2023-02-03T04:57:27.622Z,5.50
2023-02-03T04:59:54.262Z,5.50
2023-02-03T05:02:21.235Z,5.60
2023-02-03T05:04:47.861Z,5.70
2023-02-03T05:07:14.516Z,5.70
2023-02-03T05:09:41.165Z,5.70
2023-02-03T05:12:07.873Z,5.70
2023-02-03T05:14:34.502Z,5.80
2023-02-03T05:17:01.147Z,5.80
2023-02-03T05:19:27.796Z,5.80
2023-02-03T05:21:54.445Z,5.90
2023-02-03T05:24:21.057Z,5.90
2023-02-03T05:26:47.706Z,5.90
2023-02-03T05:29:14.543Z,6.00
2023-02-03T05:31:41.223Z,6.00
2023-02-03T05:34:07.904Z,6.00
2023-02-03T05:36:34.540Z,6.00
2023-02-03T05:39:01.191Z,6.00
2023-02-03T05:41:46.443Z,6.00
2023-02-03T05:44:13.107Z,6.10
2023-02-03T05:46:39.795Z,6.10
2023-02-03T05:49:06.539Z,6.20
2023-02-03T05:51:33.378Z,6.20
2023-02-03T05:54:00.034Z,6.20
2023-02-03T05:56:26.777Z,6.20
2023-02-03T05:58:53.598Z,6.20
2023-02-03T06:01:20.388Z,6.20
2023-02-03T06:03:48.215Z,6.20
2023-02-03T06:06:15.222Z,6.30
2023-02-03T06:08:43.124Z,6.30
2023-02-03T06:11:10.849Z,6.30
2023-02-03T06:13:37.873Z,6.30
2023-02-03T06:16:05.292Z,6.30
2023-02-03T06:18:31.984Z,6.30
2023-02-03T06:20:58.601Z,6.30
2023-02-03T06:23:25.340Z,6.30
2023-02-03T06:25:52.558Z,6.30
2023-02-03T06:28:19.562Z,6.30
2023-02-03T06:30:50.603Z,6.30
2023-02-03T06:33:17.411Z,6.30
2023-02-03T06:35:44.045Z,6.30
2023-02-03T06:38:11.213Z,6.30
2023-02-03T06:40:37.929Z,6.30
2023-02-03T06:43:04.615Z,6.30
2023-02-03T06:45:31.259Z,6.30
2023-02-03T06:47:57.924Z,6.30
2023-02-03T06:50:24.945Z,6.30
2023-02-03T06:52:51.729Z,6.30
2023-02-03T06:55:18.502Z,6.30
2023-02-03T06:57:47.003Z,6.30
2023-02-03T07:00:18.468Z,6.40
2023-02-03T07:02:46.384Z,6.40
2023-02-03T07:05:13.189Z,6.40
2023-02-03T07:07:39.876Z,6.40
2023-02-03T07:10:07.471Z,6.40
2023-02-03T07:12:34.150Z,6.40
2023-02-03T07:15:00.786Z,6.40
2023-02-03T07:17:27.516Z,6.50
2023-02-03T07:19:54.156Z,6.50
2023-02-03T07:22:20.784Z,6.50
2023-02-03T07:24:47.465Z,6.50
2023-02-03T07:27:14.175Z,6.50
2023-02-03T07:29:40.867Z,6.50
2023-02-03T07:32:07.840Z,6.50
2023-02-03T07:34:34.481Z,6.50
2023-02-03T07:37:01.136Z,6.50
2023-02-03T07:39:27.894Z,6.50
2023-02-03T07:41:54.646Z,6.50
2023-02-03T07:44:21.268Z,6.50
2023-02-03T07:46:48.018Z,6.50
2023-02-03T07:49:15.639Z,6.60
2023-02-03T07:51:42.293Z,6.60
2023-02-03T07:54:08.984Z,6.60
2023-02-03T07:56:35.640Z,6.60
2023-02-03T07:59:02.591Z,6.60
2023-02-03T08:01:29.536Z,6.50
2023-02-03T08:03:56.384Z,6.50
2023-02-03T08:06:23.359Z,6.50
2023-02-03T08:08:50.004Z,6.40
2023-02-03T08:11:16.672Z,6.40
2023-02-03T08:13:43.359Z,6.40
2023-02-03T08:16:10.116Z,6.30
2023-02-03T08:18:36.980Z,6.40
2023-02-03T08:21:04.852Z,6.40
2023-02-03T08:23:31.848Z,6.40
2023-02-03T08:25:58.521Z,6.40
2023-02-03T08:28:25.219Z,6.50
2023-02-03T08:30:52.071Z,6.50
2023-02-03T08:33:18.852Z,6.60
2023-02-03T08:35:47.517Z,6.60
2023-02-03T08:38:14.380Z,6.60
2023-02-03T08:40:41.062Z,6.70
2023-02-03T08:43:07.756Z,6.80
2023-02-03T08:45:34.709Z,6.80
2023-02-03T08:48:01.397Z,6.90
2023-02-03T08:50:28.348Z,6.90
2023-02-03T08:52:55.267Z,7.00
2023-02-03T08:55:21.951Z,7.00
2023-02-03T08:57:48.606Z,7.10
2023-02-03T09:00:15.790Z,7.10
2023-02-03T09:02:42.476Z,7.20
2023-02-03T09:05:09.584Z,7.20
2023-02-03T09:07:36.318Z,7.20
2023-02-03T09:10:03.160Z,7.20
2023-02-03T09:12:29.801Z,7.20
2023-02-03T09:14:56.674Z,7.10
2023-02-03T09:17:23.337Z,7.10
2023-02-03T09:19:49.999Z,7.10
2023-02-03T09:22:16.661Z,7.00
2023-02-03T09:24:43.322Z,7.00
2023-02-03T09:27:09.987Z,7.00
2023-02-03T09:29:36.651Z,7.00
2023-02-03T09:32:07.787Z,7.00
2023-02-03T09:34:34.567Z,7.10
2023-02-03T09:37:01.436Z,7.20
2023-02-03T09:39:28.126Z,7.40
2023-02-03T09:42:19.663Z,7.40
2023-02-03T09:45:03.561Z,7.50
2023-02-03T09:47:36.517Z,7.60
2023-02-03T09:50:07.047Z,7.70
2023-02-03T09:52:40.638Z,7.70
2023-02-03T09:55:26.159Z,7.80
2023-02-03T09:58:01.796Z,7.90
2023-02-03T10:00:49.987Z,8.00
2023-02-03T10:03:34.631Z,8.00
2023-02-03T10:06:28.768Z,8.10
2023-02-03T10:09:13.260Z,8.20
2023-02-03T10:12:04.928Z,8.20
2023-02-03T10:14:43.582Z,8.20
2023-02-03T10:17:16.077Z,8.30
2023-02-03T10:19:54.821Z,8.30
2023-02-03T10:22:28.483Z,8.30
2023-02-03T10:25:25.038Z,8.30
2023-02-03T10:27:55.842Z,8.30
2023-02-03T10:30:28.794Z,8.30
2023-02-03T10:33:09.025Z,8.30
2023-02-03T10:35:54.684Z,8.30
2023-02-03T10:38:38.499Z,8.30
2023-02-03T10:41:05.466Z,8.30
2023-02-03T10:43:51.378Z,8.40
2023-02-03T10:46:35.919Z,8.40
2023-02-03T10:49:02.786Z,8.50
2023-02-03T10:51:36.986Z,8.60
2023-02-03T10:56:37.940Z,8.70
2023-02-03T10:59:06.525Z,8.70
2023-02-03T11:01:46.254Z,8.80
2023-02-03T11:04:26.934Z,8.80
2023-02-03T11:07:02.299Z,8.80
2023-02-03T11:09:33.198Z,8.90
2023-02-03T11:12:06.888Z,8.90
2023-02-03T11:14:38.439Z,8.90
2023-02-03T11:17:08.427Z,8.90
2023-02-03T11:19:38.605Z,8.90
2023-02-03T11:22:06.470Z,9.00
2023-02-03T11:24:37.970Z,8.90
2023-02-03T11:27:16.061Z,8.90
2023-02-03T11:30:09.645Z,8.90
2023-02-03T11:32:41.586Z,8.90
2023-02-03T11:35:27.900Z,8.90
2023-02-03T11:38:00.194Z,8.90
2023-02-03T11:40:38.404Z,8.90
2023-02-03T11:43:18.290Z,8.80
2023-02-03T11:45:47.058Z,8.80
2023-02-03T11:48:35.871Z,8.80
2023-02-03T11:51:33.991Z,8.80
2023-02-03T11:54:41.044Z,8.80
2023-02-03T11:57:37.619Z,8.90
2023-02-03T12:00:31.444Z,9.00
2023-02-03T12:03:43.278Z,9.00
2023-02-03T12:06:16.827Z,8.90
2023-02-03T12:09:20.814Z,9.00
2023-02-03T12:12:06.125Z,9.10
2023-02-03T12:15:03.002Z,9.10
2023-02-03T12:17:29.655Z,9.20
2023-02-03T12:20:03.158Z,9.20
2023-02-03T12:22:35.212Z,9.30
2023-02-03T12:25:42.533Z,9.40
2023-02-03T12:28:39.690Z,9.50
2023-02-03T12:31:27.533Z,9.50
2023-02-03T12:34:06.874Z,9.60
2023-02-03T12:36:59.022Z,9.60
2023-02-03T12:39:36.580Z,9.60
2023-02-03T12:42:12.000Z,9.70
2023-02-03T12:44:52.669Z,9.70
2023-02-03T12:47:28.296Z,9.80
2023-02-03T12:50:00.758Z,9.80
2023-02-03T12:52:51.507Z,9.80
2023-02-03T12:55:32.131Z,9.80
2023-02-03T12:58:31.159Z,9.70
2023-02-03T13:01:10.476Z,9.70
2023-02-03T13:03:51.829Z,9.80
2023-02-03T13:06:33.794Z,9.80
2023-02-03T13:09:41.542Z,9.60
2023-02-03T13:12:13.752Z,9.60
2023-02-03T13:14:47.070Z,9.60
2023-02-03T13:17:24.347Z,9.50
2023-02-03T13:20:02.426Z,9.50
2023-02-03T13:22:29.213Z,9.40
2023-02-03T13:25:01.891Z,9.40
2023-02-03T13:27:34.496Z,9.40
2023-02-03T13:30:31.332Z,9.40
2023-02-03T13:33:34.777Z,9.30
2023-02-03T13:36:38.805Z,9.30
2023-02-03T13:39:33.098Z,9.30
2023-02-03T13:42:27.774Z,9.30
2023-02-03T13:45:06.606Z,9.30
2023-02-03T13:47:33.848Z,9.20
2023-02-03T13:50:04.109Z,9.30
2023-02-03T13:52:35.633Z,9.30
2023-02-03T13:55:03.490Z,9.30
2023-02-03T13:57:37.417Z,9.30
2023-02-03T14:00:45.318Z,9.20
2023-02-03T14:03:17.982Z,9.20
2023-02-03T14:05:49.312Z,9.10
2023-02-03T14:08:28.220Z,9.10
2023-02-03T14:11:35.941Z,9.10
2023-02-03T14:14:08.418Z,9.10
2023-02-03T14:16:42.351Z,9.20
2023-02-03T14:19:32.904Z,9.20
2023-02-03T14:22:03.817Z,9.20
2023-02-03T14:24:39.826Z,9.20
2023-02-03T14:27:18.455Z,9.20
2023-02-03T14:29:45.135Z,9.20
2023-02-03T14:32:13.288Z,9.20
2023-02-03T14:34:42.094Z,9.20
2023-02-03T14:37:28.778Z,9.20
2023-02-03T14:40:40.083Z,9.20
2023-02-03T14:43:25.560Z,9.20
2023-02-03T14:46:33.854Z,9.20
2023-02-03T14:49:29.609Z,9.20
2023-02-03T14:52:27.535Z,9.20
2023-02-03T14:55:13.715Z,9.20
2023-02-03T14:57:49.514Z,9.20
2023-02-03T15:00:19.213Z,9.10
2023-02-03T15:03:10.588Z,9.10
2023-02-03T15:05:48.165Z,9.10
2023-02-03T15:08:36.560Z,9.10
2023-02-03T15:11:22.015Z,9.10
2023-02-03T15:13:48.649Z,9.10
2023-02-03T15:16:20.330Z,9.10
2023-02-03T15:18:55.189Z,9.00
2023-02-03T15:21:22.260Z,9.00
2023-02-03T15:23:50.966Z,9.00
2023-02-03T15:26:24.315Z,8.90
2023-02-03T15:28:58.917Z,8.90
2023-02-03T15:31:43.834Z,8.90
2023-02-03T15:34:19.275Z,8.90
2023-02-03T15:36:52.013Z,8.90
2023-02-03T15:39:52.237Z,8.80
2023-02-03T15:42:26.695Z,8.80
2023-02-03T15:45:02.467Z,8.80
2023-02-03T15:48:01.375Z,8.80
2023-02-03T15:50:38.516Z,8.90
2023-02-03T15:53:18.951Z,8.90
2023-02-03T15:55:50.670Z,8.90
2023-02-03T15:58:29.311Z,8.90
2023-02-03T16:01:03.069Z,8.90
2023-02-03T16:03:47.140Z,8.90
2023-02-03T16:06:25.368Z,8.90
2023-02-03T16:08:52.651Z,8.80
2023-02-03T16:11:35.618Z,8.80
2023-02-03T16:14:06.650Z,8.80
2023-02-03T16:16:55.208Z,8.80
2023-02-03T16:19:32.315Z,8.80
2023-02-03T16:22:02.227Z,8.80
2023-02-03T16:24:42.549Z,8.70
2023-02-03T16:27:21.463Z,8.70
2023-02-03T16:30:06.636Z,8.70
2023-02-03T16:32:52.225Z,8.70
2023-02-03T16:35:37.742Z,8.60
2023-02-03T16:38:33.059Z,8.60
2023-02-03T16:41:18.658Z,8.60
2023-02-03T16:44:04.739Z,8.60
2023-02-03T16:46:50.204Z,8.60
2023-02-03T16:49:35.626Z,8.60
2023-02-03T16:52:03.202Z,8.60
2023-02-03T16:54:29.827Z,8.60
2023-02-03T16:56:58.522Z,8.60
2023-02-03T16:59:25.459Z,8.60
2023-02-03T17:01:52.165Z,8.60
2023-02-03T17:04:18.885Z,8.50
2023-02-03T17:06:45.765Z,8.50
2023-02-03T17:09:12.418Z,8.50
2023-02-03T17:11:39.565Z,8.50
2023-02-03T17:14:06.417Z,8.50
2023-02-03T17:16:33.549Z,8.50
2023-02-03T17:19:00.285Z,8.50
2023-02-03T17:21:29.254Z,8.50
2023-02-03T17:23:57.315Z,8.50
2023-02-03T17:26:23.963Z,8.50
2023-02-03T17:28:50.756Z,8.50
2023-02-03T17:31:20.347Z,8.50
2023-02-03T17:33:51.673Z,8.50
2023-02-03T17:36:20.407Z,8.40
2023-02-03T17:55:22.766Z,8.50
2023-02-03T17:57:49.501Z,8.50
2023-02-03T18:00:17.671Z,8.50
2023-02-03T18:02:44.456Z,8.40
2023-02-03T18:05:11.574Z,8.40
2023-02-03T18:07:38.242Z,8.40
2023-02-03T18:10:05.233Z,8.40
2023-02-03T18:12:31.942Z,8.50
2023-02-03T18:14:58.563Z,8.40
2023-02-03T18:17:25.255Z,8.50
2023-02-03T18:19:55.759Z,8.50
2023-02-03T18:22:23.420Z,8.50
2023-02-03T18:24:52.773Z,8.50
2023-02-03T18:27:19.811Z,8.50
2023-02-03T18:29:47.964Z,8.50
2023-02-03T18:32:15.449Z,8.50
2023-02-03T18:34:42.268Z,8.50
2023-02-03T18:37:09.312Z,8.50
2023-02-03T18:39:36.077Z,8.40
2023-02-03T18:42:03.582Z,8.40
2023-02-03T18:44:31.601Z,8.40
2023-02-03T18:47:06.473Z,8.40
2023-02-03T18:49:35.579Z,8.40
2023-02-03T18:52:03.019Z,8.40
2023-02-03T18:54:29.740Z,8.40
2023-02-03T18:56:58.938Z,8.40
2023-02-03T18:59:26.312Z,8.40
2023-02-03T19:01:53.209Z,8.40
2023-02-03T19:04:20.168Z,8.40
2023-02-03T19:06:47.660Z,8.40
2023-02-03T19:09:17.039Z,8.40
2023-02-03T19:11:44.023Z,8.30
2023-02-03T19:14:12.901Z,8.30
2023-02-03T19:16:39.791Z,8.30
2023-02-03T19:19:06.496Z,8.30
2023-02-03T19:21:33.313Z,8.30
2023-02-03T19:23:59.983Z,8.30
2023-02-03T19:26:27.915Z,8.30
2023-02-03T19:28:55.782Z,8.30
2023-02-03T19:31:23.130Z,8.30
2023-02-03T19:33:49.898Z,8.30
2023-02-03T19:36:16.774Z,8.30
2023-02-03T19:38:43.533Z,8.30
2023-02-03T19:41:11.731Z,8.30
2023-02-03T19:43:38.552Z,8.20
2023-02-03T19:46:05.353Z,8.20
2023-02-03T19:48:32.269Z,8.20
2023-02-03T19:50:59.028Z,8.20
2023-02-03T19:53:25.674Z,8.20
2023-02-03T19:55:52.637Z,8.20
2023-02-03T19:58:19.534Z,8.20
2023-02-03T20:00:46.190Z,8.20
2023-02-03T20:03:12.898Z,8.20
2023-02-03T20:05:39.753Z,8.20
2023-02-03T20:08:06.543Z,8.20
2023-02-03T20:10:33.355Z,8.20
2023-02-03T20:13:00.392Z,8.20
2023-02-03T20:15:27.182Z,8.20
2023-02-03T20:17:54.032Z,8.20
2023-02-03T20:20:21.148Z,8.20
2023-02-03T20:22:48.450Z,8.20
2023-02-03T20:25:15.475Z,8.20
2023-02-03T20:27:42.375Z,8.20
2023-02-03T20:30:09.928Z,8.20
2023-02-03T20:32:37.096Z,8.20
2023-02-03T20:35:04.955Z,8.20
2023-02-03T20:37:32.012Z,8.20
2023-02-03T20:39:58.710Z,8.20
2023-02-03T20:42:25.394Z,8.20
2023-02-03T20:44:52.065Z,8.10
2023-02-03T20:47:22.086Z,8.10
2023-02-03T20:49:49.674Z,8.10
2023-02-03T20:52:18.325Z,8.10
2023-02-03T20:54:45.256Z,8.10
2023-02-03T20:57:14.749Z,8.10
2023-02-03T20:59:44.388Z,8.10
2023-02-03T21:02:19.098Z,8.10
2023-02-03T21:04:57.857Z,8.10
2023-02-03T21:07:27.581Z,8.10
2023-02-03T21:09:54.806Z,8.10
2023-02-03T21:12:21.762Z,8.10
2023-02-03T21:14:49.155Z,8.10
2023-02-03T21:17:18.569Z,8.10
2023-02-03T21:19:46.022Z,8.10
2023-02-03T21:22:27.240Z,8.10
2023-02-03T21:24:58.983Z,8.10
2023-02-03T21:27:31.270Z,8.10
2023-02-03T21:29:59.830Z,8.10
2023-02-03T21:32:38.190Z,8.10
2023-02-03T21:35:24.751Z,8.10
2023-02-03T21:38:02.314Z,8.10
2023-02-03T21:40:31.884Z,8.10
2023-02-03T21:43:00.178Z,8.10
2023-02-03T21:45:28.648Z,8.10
2023-02-03T21:47:58.370Z,8.10
2023-02-03T21:50:36.699Z,8.10
2023-02-03T21:53:23.855Z,8.10
2023-02-03T21:55:50.529Z,8.10
2023-02-03T21:58:23.575Z,8.10
2023-02-03T22:00:54.865Z,8.10
2023-02-03T22:03:35.921Z,8.10
2023-02-03T22:06:08.494Z,8.10
2023-02-03T22:08:38.837Z,8.10
2023-02-03T22:11:05.841Z,8.10
2023-02-03T22:13:32.705Z,8.10
2023-02-03T22:15:59.933Z,8.10
2023-02-03T22:18:26.994Z,8.10
2023-02-03T22:20:53.752Z,8.10
2023-02-03T22:23:20.879Z,8.10
2023-02-03T22:25:47.883Z,8.10
2023-02-03T22:28:15.225Z,8.10
2023-02-03T22:30:42.184Z,8.10
2023-02-03T22:33:08.948Z,8.10
2023-02-03T22:35:35.713Z,8.10
2023-02-03T22:38:02.692Z,8.10
2023-02-03T22:40:29.610Z,8.10
2023-02-03T22:42:56.411Z,8.10
2023-02-03T22:45:23.262Z,8.10
2023-02-03T22:47:49.990Z,8.10
2023-02-03T22:50:20.443Z,8.10
2023-02-03T22:52:50.755Z,8.10
2023-02-03T22:55:17.475Z,8.10
2023-02-03T22:57:44.140Z,8.00
2023-02-03T23:00:11.529Z,8.00
2023-02-03T23:02:39.674Z,8.00
2023-02-03T23:05:08.423Z,8.00
2023-02-03T23:07:35.342Z,8.00
2023-02-03T23:10:01.987Z,8.00
2023-02-03T23:12:28.726Z,8.00
2023-02-03T23:14:55.445Z,8.00
2023-02-03T23:17:22.235Z,8.00
2023-02-03T23:19:48.991Z,8.00
2023-02-03T23:22:16.018Z,8.00
2023-02-03T23:24:43.077Z,7.90
2023-02-03T23:27:09.816Z,8.00
2023-02-03T23:29:38.089Z,8.00
2023-02-03T23:32:08.615Z,7.90
2023-02-03T23:34:53.695Z,7.90
2023-02-03T23:37:20.344Z,7.90
2023-02-03T23:39:46.985Z,7.90
2023-02-03T23:42:13.614Z,7.90
2023-02-03T23:44:40.582Z,7.80
2023-02-03T23:47:07.678Z,7.70
2023-02-03T23:49:34.315Z,7.70
2023-02-03T23:52:01.012Z,7.70
2023-02-03T23:54:27.694Z,7.70
2023-02-03T23:56:54.336Z,7.80
2023-02-03T23:59:20.976Z,7.70
